Saskatoon John G. Diefenbaker International Airport
CYXE : now visible

Airfield :











YOU CAN JOIN US ON...

 
LOGIN :

Register | Disclaimer

   EN    FR    IT 

 









Legend :    VFR   Marginal VFR   IFR   Intensive IFR   Very Intensive IFR
Visi :
Ceiling :
>= 8 km
>= 3000ft
5 to 8 km
1000 to 3000 ft
1500m to 5 km
500 to 1000 ft
800 to 1500m
200 to 500 ft
< 800m
< 200 ft
Symbols :   Thunderstorms  Fog  Heavy snow  Heavy precipitations  Wind > 20 kt






- Airport Elevation : 1653 ft
- IATA code : YXE


CYXE - Saskatoon John G. Diefenbaker International

CURRENT METAR :
  • 031400Z 23005KT 5SM FU BKN130 OVC300 22/13 A2995 RMK AC5CI3 SLP141 DENSITY ALT 2900FT

EXPIRED METARs :
  • 031300Z 23004KT 5SM FU SCT150 OVC300 21/12 A2996 RMK AC4CI4 SLP142 DENSITY ALT 2700FT
  • 031200Z 24005KT 8SM BKN140 OVC180 21/11 A2996 RMK AC5AC3 FU SLP141 DENSITY ALT 2700FT

TAF TAF CYXE
Valid from the 03 at 12:00 until the 04 at 12:00 UTC


031138Z 0312/0412 20005KT P6SM BKN100 OVC150
TEMPO 0312/0321 5SM -SHRA FU BKN060 OVC120
BECMG 0315/0317 22015G25KT
FM032100 18015G25KT 6SM FU BKN060 BKN120
TEMPO 0321/0402 5SM -SHRA VCTS FU BKN040CB OVC080
FM040200 22007KT 3SM FU BKN060
TEMPO 0402/0409 6SM FU
BECMG 0402/0404 33008KT
FM040900 26005KT 4SM FU BKN040
TEMPO 0409/0412 2SM FU BR BKN020
BECMG 0410/0412 21005KT RMK NXT FCST BY 031800Z
CZWG FIR / North America



MET'MAP, your aeronautical weather chart ! - Copyright ORBIFLY December 2007 - Disclaimer

ORBIFLY MET'MAP TEAM :

Programming & Development : Alexandra Zaïnal
Concept & original design : Baudouin d'Aumeries
Assistance for programming : Marc-Olivier Méhu
Technical & hardware support : Manuel Goepfert

Contact : metmap@orbifly.com




SOURCES & CREDITS :

   NOAA       Earth
Advisory